Time;durP1;ratioP1;P1;durP2;ratioP2;P2;SDS_P1;SDS_P2;PMS_P1;PMS_P2;Temp;Humidity;BMP_temperature;BMP_pressure;BME280_temperature;BME280_humidity;BME280_pressure;Samples;Min_cycle;Max_cycle;Signal;HPM_P1;HPM_P2
2023/02/27 00:02:06;;;;;;;;;;;;;;;15.93;51.33;100460.75;4997563;28;953;-47
2023/02/27 00:04:31;;;;;;;;;;;;;;;15.75;51.66;100475.81;4997525;28;1444;-46
2023/02/27 00:06:57;;;;;;;;;;;;;;;15.66;52.00;100475.56;4998216;28;1187;-43
2023/02/27 00:09:22;;;;;;;;;;;;;;;15.50;52.03;100473.91;4997788;28;1026;-45
2023/02/27 00:11:48;;;;;;;;;;;;;;;16.65;49.68;100482.50;4997578;28;1048;-45
2023/02/27 00:14:13;;;;;;;;;;;;;;;17.02;48.31;100470.25;4997568;28;957;-46
2023/02/27 00:16:39;;;;;;;;;;;;;;;16.23;50.44;100481.00;4997803;28;2218;-44
2023/02/27 00:19:04;;;;;;;;;;;;;;;15.94;51.15;100483.53;4997656;28;2265;-45
2023/02/27 00:21:30;;;;;;;;;;;;;;;15.71;51.63;100492.00;4997223;28;1076;-47
2023/02/27 00:23:56;;;;;;;;;;;;;;;15.58;51.97;100487.06;4997527;28;1203;-46
2023/02/27 00:26:21;;;;;;;;;;;;;;;15.50;52.25;100473.91;4996616;28;904;-45
2023/02/27 00:28:46;;;;;;;;;;;;;;;16.48;50.07;100462.78;4997036;28;993;-43
2023/02/27 00:31:12;;;;;;;;;;;;;;;17.09;48.04;100457.00;5012426;28;1152;-42
2023/02/27 00:33:37;;;;;;;;;;;;;;;16.19;50.70;100455.22;5012427;28;1478;-46
2023/02/27 00:36:03;;;;;;;;;;;;;;;15.87;51.37;100457.19;4997648;28;1141;-44
2023/02/27 00:38:28;;;;;;;;;;;;;;;15.73;51.59;100462.38;4996251;28;1906;-46
2023/02/27 00:40:56;;;;;;;;;;;;;;;15.60;51.96;100462.13;4997541;28;1120;-44
2023/02/27 00:43:21;;;;;;;;;;;;;;;15.47;52.28;100458.00;4996718;28;1219;-44
2023/02/27 00:45:48;;;;;;;;;;;;;;;16.26;50.77;100458.50;5014851;28;2366;-46
2023/02/27 00:48:14;;;;;;;;;;;;;;;17.21;48.11;100472.34;4996596;28;1060;-45
2023/02/27 00:50:40;;;;;;;;;;;;;;;16.20;50.74;100476.88;4996877;28;862;-43
2023/02/27 00:53:05;;;;;;;;;;;;;;;15.89;51.27;100476.09;4996670;28;1057;-43
2023/02/27 00:55:31;;;;;;;;;;;;;;;15.74;51.65;100480.47;4996938;28;1052;-44
2023/02/27 00:57:56;;;;;;;;;;;;;;;15.55;51.87;100466.50;5012222;28;1985;-43
2023/02/27 01:00:22;;;;;;;;;;;;;;;15.48;52.47;100476.09;4996501;28;1040;-46
2023/02/27 01:02:47;;;;;;;;;;;;;;;15.63;51.97;100484.31;5011723;28;1074;-44
2023/02/27 01:05:13;;;;;;;;;;;;;;;17.18;48.07;100470.13;4996896;28;1056;-43
2023/02/27 01:07:38;;;;;;;;;;;;;;;16.42;49.95;100481.19;4996821;28;1033;-45
2023/02/27 01:10:05;;;;;;;;;;;;;;;15.97;51.19;100481.03;4996383;28;1017;-44
2023/02/27 01:12:31;;;;;;;;;;;;;;;15.74;51.82;100480.47;4996531;28;1125;-44
2023/02/27 01:14:56;;;;;;;;;;;;;;;15.62;51.80;100490.09;4996240;28;851;-46
2023/02/27 01:17:22;;;;;;;;;;;;;;;15.49;52.10;100505.16;4996586;28;2505;-45
2023/02/27 01:19:47;;;;;;;;;;;;;;;15.42;52.33;100515.53;5010805;28;2236;-42
2023/02/27 01:22:12;;;;;;;;;;;;;;;16.99;48.84;100514.75;4996789;28;1097;-45
2023/02/27 01:24:40;;;;;;;;;;;;;;;16.62;49.48;100507.78;5011316;28;1076;-42
2023/02/27 01:27:05;;;;;;;;;;;;;;;15.99;51.00;100520.00;5011231;28;977;-43
2023/02/27 01:29:31;;;;;;;;;;;;;;;15.80;51.56;100527.94;5011145;28;1020;-45
2023/02/27 01:31:56;;;;;;;;;;;;;;;15.66;52.06;100521.34;4996407;28;1386;-47
2023/02/27 01:34:21;;;;;;;;;;;;;;;15.52;52.44;100521.06;4996424;28;1165;-43
2023/02/27 01:36:47;;;;;;;;;;;;;;;15.45;52.38;100517.75;4996237;28;1088;-43
2023/02/27 01:39:14;;;;;;;;;;;;;;;15.41;52.72;100514.72;4996134;28;1984;-42
2023/02/27 01:41:40;;;;;;;;;;;;;;;16.98;48.77;100517.78;4996304;28;1129;-47
2023/02/27 01:44:06;;;;;;;;;;;;;;;16.58;49.68;100509.44;4996139;28;1113;-47
2023/02/27 01:46:32;;;;;;;;;;;;;;;15.97;51.06;100524.91;4995932;28;2542;-42
2023/02/27 01:49:03;;;;;;;;;;;;;;;15.72;51.79;100542.16;4996079;28;1124;-46
2023/02/27 01:51:30;;;;;;;;;;;;;;;15.57;52.06;100532.84;5011594;28;1132;-42
2023/02/27 01:53:56;;;;;;;;;;;;;;;15.51;52.19;100535.84;4978759;28;1297;-45
2023/02/27 01:56:28;;;;;;;;;;;;;;;16.95;48.92;100543.91;5011232;28;1236;-44
2023/02/27 01:58:55;;;;;;;;;;;;;;;16.55;49.80;100542.91;4995110;28;1913;-43
2023/02/27 02:01:23;;;;;;;;;;;;;;;16.03;51.28;100547.66;4994514;28;1037;-46
2023/02/27 02:03:53;;;;;;;;;;;;;;;15.78;51.76;100542.97;4995773;28;1029;-43
2023/02/27 02:06:19;;;;;;;;;;;;;;;15.61;51.90;100546.81;5011466;28;1016;-46
2023/02/27 02:08:44;;;;;;;;;;;;;;;15.52;52.35;100537.50;4995965;28;1361;-42
2023/02/27 02:11:11;;;;;;;;;;;;;;;15.39;52.39;100534.19;4978329;28;1297;-47
2023/02/27 02:13:37;;;;;;;;;;;;;;;15.31;52.78;100547.59;5010427;28;1136;-43
2023/02/27 02:16:21;;;;;;;;;;;;;;;16.82;49.29;100548.03;5017558;28;1810;-46
2023/02/27 02:18:51;;;;;;;;;;;;;;;16.52;49.79;100555.28;4979585;28;1991;-45
2023/02/27 02:21:35;;;;;;;;;;;;;;;15.94;51.30;100557.56;4996064;28;993;-43
2023/02/27 02:24:24;;;;;;;;;;;;;;;15.72;51.84;100551.22;4999759;28;1619;-45
2023/02/27 02:26:54;;;;;;;;;;;;;;;15.51;52.42;100552.28;4995384;28;1781;-44
2023/02/27 02:29:23;;;;;;;;;;;;;;;15.44;52.41;100562.69;4996315;28;1013;-42
2023/02/27 02:31:59;;;;;;;;;;;;;;;16.04;51.34;100550.13;4995293;28;1116;-44
2023/02/27 02:34:37;;;;;;;;;;;;;;;17.30;47.79;100542.06;4995670;28;1144;-44
2023/02/27 02:37:17;;;;;;;;;;;;;;;16.26;50.51;100560.00;4995654;28;1005;-46
2023/02/27 02:39:43;;;;;;;;;;;;;;;15.87;51.41;100560.56;4992939;28;978;-47
2023/02/27 02:42:18;;;;;;;;;;;;;;;15.67;52.08;100561.34;4978208;28;1120;-43
2023/02/27 02:45:03;;;;;;;;;;;;;;;15.54;52.39;100566.28;5010343;28;1111;-43
2023/02/27 02:47:41;;;;;;;;;;;;;;;15.92;51.55;100563.28;4995759;28;2521;-45
2023/02/27 02:50:19;;;;;;;;;;;;;;;17.35;47.62;100565.94;5013923;28;1101;-43
2023/02/27 02:52:54;;;;;;;;;;;;;;;16.27;50.37;100563.56;4999307;28;1125;-44
2023/02/27 02:55:21;;;;;;;;;;;;;;;15.93;51.44;100564.13;4997656;28;1322;-42
2023/02/27 02:57:48;;;;;;;;;;;;;;;15.73;51.84;100554.78;4981421;28;1910;-41
2023/02/27 03:00:14;;;;;;;;;;;;;;;15.57;52.35;100553.91;4997721;28;1247;-46
2023/02/27 03:03:06;;;;;;;;;;;;;;;15.52;52.30;100559.41;5013833;28;892;-42
2023/02/27 03:05:34;;;;;;;;;;;;;;;15.40;52.49;100565.13;4997914;28;1688;-43
2023/02/27 03:08:01;;;;;;;;;;;;;;;16.65;49.55;100555.78;5014310;28;1185;-47
2023/02/27 03:10:48;;;;;;;;;;;;;;;16.66;49.50;100566.50;4996845;28;1096;-45
2023/02/27 03:13:19;;;;;;;;;;;;;;;15.96;51.25;100556.16;5013795;28;1075;-45
2023/02/27 03:16:05;;;;;;;;;;;;;;;15.74;52.02;100559.19;4998746;28;2222;-42
2023/02/27 03:18:32;;;;;;;;;;;;;;;15.56;52.09;100560.53;4998752;28;1960;-43
2023/02/27 03:20:59;;;;;;;;;;;;;;;15.44;52.61;100562.69;4998418;28;1021;-48
2023/02/27 03:23:43;;;;;;;;;;;;;;;16.42;50.45;100569.88;5013538;28;1052;-43
2023/02/27 03:26:11;;;;;;;;;;;;;;;16.86;48.84;100557.38;4998040;28;1068;-43
2023/02/27 03:28:37;;;;;;;;;;;;;;;16.06;51.15;100553.44;5000894;28;1218;-45
2023/02/27 03:31:12;;;;;;;;;;;;;;;15.82;51.80;100568.78;5013421;28;1145;-46
2023/02/27 03:33:39;;;;;;;;;;;;;;;15.63;52.20;100565.75;4980685;28;1207;-44
2023/02/27 03:36:13;;;;;;;;;;;;;;;15.49;52.21;100565.44;5013527;28;1089;-43
2023/02/27 03:38:44;;;;;;;;;;;;;;;16.08;51.12;100556.72;4997241;28;1968;-43
2023/02/27 03:41:13;;;;;;;;;;;;;;;17.03;48.50;100553.50;4980494;28;1223;-44
2023/02/27 03:43:51;;;;;;;;;;;;;;;16.10;50.84;100552.88;4995826;28;1223;-45
2023/02/27 03:46:18;;;;;;;;;;;;;;;15.80;51.64;100549.06;4980493;28;2405;-45
2023/02/27 03:48:44;;;;;;;;;;;;;;;15.64;52.03;100543.53;4997054;28;1219;-45
2023/02/27 03:51:11;;;;;;;;;;;;;;;15.49;52.49;100543.53;5013049;28;1028;-45
2023/02/27 03:53:38;;;;;;;;;;;;;;;15.40;52.48;100546.78;4996896;28;1139;-48
2023/02/27 03:56:04;;;;;;;;;;;;;;;16.82;49.47;100536.25;4980730;28;1128;-44
2023/02/27 03:58:30;;;;;;;;;;;;;;;16.97;48.70;100549.94;4996486;28;1981;-45
2023/02/27 04:00:55;;;;;;;;;;;;;;;16.17;50.86;100545.19;5012143;28;1155;-45
2023/02/27 04:03:21;;;;;;;;;;;;;;;15.86;51.59;100556.19;4997918;28;1140;-41
2023/02/27 04:05:47;;;;;;;;;;;;;;;15.70;52.17;100545.19;4980249;28;1318;-44
2023/02/27 04:08:19;;;;;;;;;;;;;;;15.60;52.06;100547.06;5012977;28;1174;-44
2023/02/27 04:11:05;;;;;;;;;;;;;;;15.60;52.25;100544.34;4985093;28;993;-43
2023/02/27 04:13:30;;;;;;;;;;;;;;;17.24;48.01;100538.53;5013150;28;1036;-41
2023/02/27 04:16:05;;;;;;;;;;;;;;;16.26;50.51;100546.28;4997276;28;2379;-45
2023/02/27 04:18:41;;;;;;;;;;;;;;;15.97;51.42;100538.63;5005637;28;1909;-43
2023/02/27 04:21:10;;;;;;;;;;;;;;;15.70;51.81;100539.69;5012224;28;973;-42
2023/02/27 04:23:40;;;;;;;;;;;;;;;15.54;52.52;100546.25;5012565;28;1071;-43
2023/02/27 04:26:18;;;;;;;;;;;;;;;15.45;52.57;100526.78;4998032;28;1177;-44
2023/02/27 04:28:44;;;;;;;;;;;;;;;16.99;48.97;100534.00;4984908;28;986;-44
2023/02/27 04:31:17;;;;;;;;;;;;;;;16.74;49.33;100535.69;4997334;28;1148;-50
2023/02/27 04:33:42;;;;;;;;;;;;;;;16.10;51.16;100553.69;5012031;28;1130;-47
2023/02/27 04:36:09;;;;;;;;;;;;;;;15.86;51.58;100545.22;4997329;28;1085;-44
2023/02/27 04:38:48;;;;;;;;;;;;;;;15.69;52.05;100540.78;4996409;28;1984;-43
2023/02/27 04:41:22;;;;;;;;;;;;;;;15.53;52.17;100550.91;5012537;28;1198;-49
2023/02/27 04:43:47;;;;;;;;;;;;;;;15.43;52.63;100544.59;4996495;28;1204;-45
2023/02/27 04:46:13;;;;;;;;;;;;;;;16.00;51.34;100565.50;4996528;28;1801;-50
2023/02/27 04:48:59;;;;;;;;;;;;;;;17.39;47.79;100559.59;5011891;28;1214;-47
2023/02/27 04:51:25;;;;;;;;;;;;;;;16.39;50.32;100572.31;4996659;28;1273;-49
2023/02/27 04:53:54;;;;;;;;;;;;;;;15.98;51.23;100583.34;5014349;28;1163;-46
2023/02/27 04:56:21;;;;;;;;;;;;;;;15.75;51.91;100585.47;4996817;28;1103;-47
2023/02/27 04:58:49;;;;;;;;;;;;;;;15.58;52.47;100588.47;4996611;28;1917;-47
2023/02/27 05:01:22;;;;;;;;;;;;;;;15.51;52.24;100590.66;5011879;28;1164;-46
2023/02/27 05:03:48;;;;;;;;;;;;;;;15.50;52.54;100589.00;4996266;28;1036;-47
2023/02/27 05:06:14;;;;;;;;;;;;;;;17.10;48.78;100590.53;4995217;28;1113;-48
2023/02/27 05:08:48;;;;;;;;;;;;;;;16.47;50.14;100596.47;5010358;28;1175;-46
2023/02/27 05:11:22;;;;;;;;;;;;;;;16.00;51.14;100603.06;4995790;28;1184;-51
2023/02/27 05:13:54;;;;;;;;;;;;;;;15.80;51.84;100603.91;5010804;28;1158;-45
2023/02/27 05:16:31;;;;;;;;;;;;;;;15.66;52.10;100607.13;5018990;28;1811;-45
2023/02/27 05:18:57;;;;;;;;;;;;;;;16.47;50.55;100612.94;4979237;28;1988;-50
2023/02/27 05:21:23;;;;;;;;;;;;;;;17.04;49.06;100621.88;5011718;28;1175;-47
2023/02/27 05:23:57;;;;;;;;;;;;;;;16.17;51.43;100627.50;4995963;28;1099;-46
2023/02/27 05:26:29;;;;;;;;;;;;;;;15.91;51.96;100616.50;5011801;28;1087;-45
2023/02/27 05:28:57;;;;;;;;;;;;;;;15.73;52.32;100609.59;4995802;28;956;-50
2023/02/27 05:31:22;;;;;;;;;;;;;;;15.60;52.95;100627.41;5012050;28;1067;-52
2023/02/27 05:33:51;;;;;;;;;;;;;;;15.51;52.99;100623.53;4996488;28;1215;-48
2023/02/27 05:36:17;;;;;;;;;;;;;;;15.40;52.81;100620.78;5011536;28;1068;-43
2023/02/27 05:38:46;;;;;;;;;;;;;;;16.64;50.53;100617.31;4995950;28;1967;-47
2023/02/27 05:41:13;;;;;;;;;;;;;;;16.79;49.60;100619.16;5011585;28;989;-47
2023/02/27 05:43:43;;;;;;;;;;;;;;;16.05;51.78;100628.59;4994517;28;1159;-43
2023/02/27 05:46:10;;;;;;;;;;;;;;;15.77;52.21;100626.31;5011228;28;2406;-45
2023/02/27 05:48:37;;;;;;;;;;;;;;;15.65;52.53;100638.34;5011723;28;1005;-45
2023/02/27 05:51:02;;;;;;;;;;;;;;;15.51;52.68;100634.50;5010889;28;1076;-45
2023/02/27 05:53:29;;;;;;;;;;;;;;;15.43;53.05;100641.34;5011560;28;1136;-44
2023/02/27 05:55:55;;;;;;;;;;;;;;;15.37;52.80;100643.22;5011181;28;1054;-44
2023/02/27 05:58:24;;;;;;;;;;;;;;;16.85;49.73;100640.84;5011286;28;1971;-42
2023/02/27 06:01:15;;;;;;;;;;;;;;;16.56;50.28;100643.38;4996351;28;1116;-56
2023/02/27 06:03:41;;;;;;;;;;;;;;;15.96;51.90;100652.16;4994569;28;1098;-61
2023/02/27 06:06:07;;;;;;;;;;;;;;;15.71;52.35;100655.63;4996240;28;1060;-60
2023/02/27 06:08:32;;;;;;;;;;;;;;;15.57;52.64;100658.06;4996002;28;1061;-59
2023/02/27 06:10:58;;;;;;;;;;;;;;;15.44;52.73;100647.63;4996107;28;1037;-61
2023/02/27 06:13:24;;;;;;;;;;;;;;;15.56;52.67;100640.00;4995905;28;1111;-60
2023/02/27 06:15:50;;;;;;;;;;;;;;;16.69;50.26;100636.50;5000433;28;1847;-60
2023/02/27 06:18:15;;;;;;;;;;;;;;;15.72;51.58;100643.59;5000633;28;1914;-52
2023/02/27 06:20:41;;;;;;;;;;;;;;;15.61;51.08;100655.63;4996019;28;1131;-56
2023/02/27 06:23:06;;;;;;;;;;;;;;;16.21;51.09;100639.56;4996169;28;1140;-56
2023/02/27 06:25:32;;;;;;;;;;;;;;;16.14;51.59;100652.72;5000003;28;1095;-56
2023/02/27 06:27:57;;;;;;;;;;;;;;;17.79;48.02;100637.44;4998046;28;1113;-58
2023/02/27 06:30:23;;;;;;;;;;;;;;;16.60;50.11;100628.00;5000500;28;1010;-58
2023/02/27 06:32:48;;;;;;;;;;;;;;;16.15;50.06;100649.72;5003932;28;988;-57
2023/02/27 06:35:14;;;;;;;;;;;;;;;16.88;49.80;100655.94;4998342;28;997;-65
2023/02/27 06:37:39;;;;;;;;;;;;;;;16.21;50.35;100664.25;4998008;28;1993;-65
2023/02/27 06:40:08;;;;;;;;;;;;;;;15.91;50.01;100663.94;4998351;28;1133;-64
2023/02/27 06:42:33;;;;;;;;;;;;;;;16.51;50.39;100668.91;4999346;28;1176;-65
2023/02/27 06:44:59;;;;;;;;;;;;;;;16.04;49.73;100665.31;4999105;28;1174;-62
2023/02/27 06:47:24;;;;;;;;;;;;;;;17.45;48.95;100670.34;4998122;28;1182;-64
2023/02/27 06:49:50;;;;;;;;;;;;;;;16.54;49.88;100670.28;4999386;28;1033;-63
2023/02/27 06:52:16;;;;;;;;;;;;;;;16.20;49.57;100673.56;4999409;28;1123;-64
2023/02/27 06:54:42;;;;;;;;;;;;;;;15.99;48.85;100668.09;4999507;28;972;-61
2023/02/27 06:57:07;;;;;;;;;;;;;;;17.32;49.15;100676.44;4999695;28;954;-61
2023/02/27 06:59:33;;;;;;;;;;;;;;;16.45;50.09;100691.97;4999527;28;1909;-65
2023/02/27 07:01:59;;;;;;;;;;;;;;;16.19;49.37;100682.91;4998279;28;1117;-61
2023/02/27 07:04:24;;;;;;;;;;;;;;;16.76;50.07;100676.31;4999101;28;1055;-61
2023/02/27 07:06:50;;;;;;;;;;;;;;;16.25;49.58;100679.88;4997467;28;1164;-64
2023/02/27 07:09:15;;;;;;;;;;;;;;;16.06;48.94;100676.88;4999209;28;988;-62
2023/02/27 07:11:41;;;;;;;;;;;;;;;16.98;49.47;100677.91;4998464;28;1073;-66
2023/02/27 07:14:07;;;;;;;;;;;;;;;16.25;49.65;100660.69;4999259;28;986;-59
2023/02/27 07:16:32;;;;;;;;;;;;;;;16.94;49.48;100671.34;5001768;28;1224;-65
2023/02/27 07:18:58;;;;;;;;;;;;;;;16.76;49.27;100665.31;4998274;28;1895;-62
2023/02/27 07:21:23;;;;;;;;;;;;;;;16.25;49.31;100659.88;4998697;28;1027;-65
2023/02/27 07:23:49;;;;;;;;;;;;;;;16.14;48.68;100652.72;4998902;28;1423;-58
2023/02/27 07:26:14;;;;;;;;;;;;;;;17.15;49.07;100661.09;4998754;28;1136;-62
2023/02/27 07:28:40;;;;;;;;;;;;;;;16.49;49.67;100653.81;4998590;28;1117;-62
2023/02/27 07:31:05;;;;;;;;;;;;;;;16.18;49.01;100659.31;4998691;28;1112;-60
2023/02/27 07:33:32;;;;;;;;;;;;;;;16.69;49.55;100648.31;4999178;28;1434;-58
2023/02/27 07:35:58;;;;;;;;;;;;;;;16.84;49.52;100639.19;4998578;28;1139;-58
2023/02/27 07:38:23;;;;;;;;;;;;;;;16.35;49.39;100654.38;4998396;28;1985;-56
2023/02/27 07:40:49;;;;;;;;;;;;;;;16.12;48.89;100663.13;4997945;28;848;-55
2023/02/27 07:43:14;;;;;;;;;;;;;;;16.50;49.22;100677.44;4997853;28;1258;-60
2023/02/27 07:45:41;;;;;;;;;;;;;;;16.85;49.38;100675.75;4981399;28;1108;-59
2023/02/27 07:48:06;;;;;;;;;;;;;;;16.32;49.21;100679.63;4998129;28;1107;-58
2023/02/27 07:50:32;;;;;;;;;;;;;;;16.18;48.63;100670.28;4998910;28;1083;-56
2023/02/27 07:52:57;;;;;;;;;;;;;;;16.01;48.06;100693.31;4998213;28;1032;-58
2023/02/27 07:55:23;;;;;;;;;;;;;;;17.62;47.87;100697.47;4998256;28;1086;-56
2023/02/27 07:57:48;;;;;;;;;;;;;;;16.59;49.22;100697.72;4998704;28;1914;-56
2023/02/27 08:00:14;;;;;;;;;;;;;;;16.23;49.08;100708.72;4998697;28;1401;-62
2023/02/27 08:02:39;;;;;;;;;;;;;;;16.17;47.90;100707.03;4998827;28;1092;-61
2023/02/27 08:05:05;;;;;;;;;;;;;;;16.97;49.06;100698.28;4998480;28;1108;-64
2023/02/27 08:07:30;;;;;;;;;;;;;;;16.32;49.16;100698.81;4998690;28;1029;-57
2023/02/27 08:09:56;;;;;;;;;;;;;;;16.77;49.08;100705.41;4998148;28;1457;-56
2023/02/27 08:12:21;;;;;;;;;;;;;;;16.81;49.20;100711.16;4998606;28;1284;-65
2023/02/27 08:14:47;;;;;;;;;;;;;;;17.18;48.97;100714.69;4998053;28;1211;-58
2023/02/27 08:17:12;;;;;;;;;;;;;;;18.58;46.63;100708.16;4997973;28;953;-61
2023/02/27 08:19:38;;;;;;;;;;;;;;;17.08;49.16;100710.03;4997788;28;1971;-59
2023/02/27 08:22:03;;;;;;;;;;;;;;;16.76;49.06;100720.22;4999015;28;1176;-64
2023/02/27 08:24:29;;;;;;;;;;;;;;;16.49;48.20;100712.28;5004930;28;1375;-61
2023/02/27 08:26:54;;;;;;;;;;;;;;;16.42;47.66;100723.53;4997930;28;1148;-60
2023/02/27 08:29:20;;;;;;;;;;;;;;;16.31;47.36;100730.09;4998391;28;1144;-59
2023/02/27 08:31:45;;;;;;;;;;;;;;;16.19;47.14;100727.63;4998220;28;1250;-62
2023/02/27 08:34:11;;;;;;;;;;;;;;;16.13;47.03;100741.59;4997380;28;1224;-63
2023/02/27 08:36:36;;;;;;;;;;;;;;;16.26;47.48;100760.28;4998130;28;1013;-62
2023/02/27 08:39:02;;;;;;;;;;;;;;;17.32;48.52;100759.72;4998428;28;2253;-66
2023/02/27 08:41:27;;;;;;;;;;;;;;;16.47;49.18;100774.06;4997871;28;1132;-63
2023/02/27 08:43:53;;;;;;;;;;;;;;;16.33;48.18;100776.50;4997785;28;1236;-64
2023/02/27 08:46:18;;;;;;;;;;;;;;;16.23;47.50;100782.78;4997440;28;1164;-65
2023/02/27 08:48:44;;;;;;;;;;;;;;;17.04;48.63;100785.88;4998104;28;1099;-63
2023/02/27 08:51:09;;;;;;;;;;;;;;;16.39;48.80;100792.69;4996913;28;1207;-62
2023/02/27 08:53:35;;;;;;;;;;;;;;;16.22;47.96;100783.88;4997301;28;1101;-64
2023/02/27 08:56:00;;;;;;;;;;;;;;;17.09;48.69;100791.38;4997900;28;1088;-58
2023/02/27 08:58:27;;;;;;;;;;;;;;;16.52;48.55;100806.97;4997173;28;1910;-61
2023/02/27 09:00:53;;;;;;;;;;;;;;;16.31;48.24;100800.63;4997161;28;1030;-62
2023/02/27 09:03:18;;;;;;;;;;;;;;;17.21;48.47;100802.09;4996835;28;1096;-59
2023/02/27 09:05:43;;;;;;;;;;;;;;;16.51;48.74;100806.16;4996637;28;885;-60
2023/02/27 09:08:09;;;;;;;;;;;;;;;16.34;48.17;100800.94;4997407;28;1080;-55
2023/02/27 09:10:34;;;;;;;;;;;;;;;17.19;48.35;100813.31;4997050;28;1069;-58
2023/02/27 09:13:00;;;;;;;;;;;;;;;16.70;48.93;100820.16;4996651;28;1072;-64
2023/02/27 09:15:25;;;;;;;;;;;;;;;16.36;48.32;100808.88;4999891;28;1279;-63
2023/02/27 09:17:51;;;;;;;;;;;;;;;16.22;47.76;100805.81;4996316;28;1983;-65
2023/02/27 09:20:16;;;;;;;;;;;;;;;17.27;47.59;100806.47;4996706;28;1164;-58
2023/02/27 09:22:42;;;;;;;;;;;;;;;16.56;48.30;100825.41;4996857;28;1103;-62
2023/02/27 09:25:07;;;;;;;;;;;;;;;16.32;47.73;100826.97;4997093;28;1115;-64
2023/02/27 09:27:33;;;;;;;;;;;;;;;16.19;47.32;100831.06;5003015;28;1153;-64
2023/02/27 09:29:58;;;;;;;;;;;;;;;17.36;47.58;100831.44;5003219;28;1263;-56
2023/02/27 09:32:24;;;;;;;;;;;;;;;16.55;48.31;100831.13;4996600;28;1196;-57
2023/02/27 09:34:49;;;;;;;;;;;;;;;16.27;48.09;100826.97;4996754;28;1199;-63
2023/02/27 09:37:15;;;;;;;;;;;;;;;17.18;48.03;100835.59;4995221;28;1108;-60
2023/02/27 09:39:41;;;;;;;;;;;;;;;16.51;48.30;100836.34;4996384;28;1918;-60
2023/02/27 09:42:19;;;;;;;;;;;;;;;16.19;48.03;100831.06;4995914;28;848;-60
2023/02/27 09:44:46;;;;;;;;;;;;;;;16.55;47.89;100848.44;5010719;28;1099;-60
2023/02/27 09:47:13;;;;;;;;;;;;;;;16.75;48.54;100850.38;4995224;28;1204;-60
2023/02/27 09:49:52;;;;;;;;;;;;;;;16.37;48.10;100841.53;4996056;28;1215;-60
2023/02/27 09:52:18;;;;;;;;;;;;;;;16.29;47.31;100847.56;4997075;28;1125;-60
2023/02/27 09:54:43;;;;;;;;;;;;;;;16.78;47.73;100849.03;4996019;28;914;-60
2023/02/27 09:57:11;;;;;;;;;;;;;;;16.83;48.36;100856.44;5016204;28;1164;-60
2023/02/27 09:59:46;;;;;;;;;;;;;;;16.39;47.97;100849.50;5019505;28;1984;-60
2023/02/27 10:02:38;;;;;;;;;;;;;;;16.23;47.26;100852.19;5000744;28;1020;-61
2023/02/27 10:05:15;;;;;;;;;;;;;;;17.27;47.15;100853.19;4985181;28;1176;-61
2023/02/27 10:07:47;;;;;;;;;;;;;;;16.46;48.05;100850.06;5000512;28;1101;-60
2023/02/27 10:10:25;;;;;;;;;;;;;;;16.21;47.60;100856.28;5006518;28;1244;-60
2023/02/27 10:13:09;;;;;;;;;;;;;;;17.09;47.39;100860.88;5006614;28;1282;-60
2023/02/27 10:15:39;;;;;;;;;;;;;;;16.43;47.92;100842.38;4999730;28;1018;-62
2023/02/27 10:18:06;;;;;;;;;;;;;;;16.22;47.13;100863.44;5013596;28;2005;-61
2023/02/27 10:20:32;;;;;;;;;;;;;;;17.16;47.44;100852.34;5000685;28;1119;-58
2023/02/27 10:22:59;;;;;;;;;;;;;;;16.72;47.80;100861.09;5000321;28;1191;-58
2023/02/27 10:25:24;;;;;;;;;;;;;;;16.36;47.67;100853.59;5014863;28;1471;-55
2023/02/27 10:27:50;;;;;;;;;;;;;;;16.25;47.14;100862.91;5000177;28;1072;-58
2023/02/27 10:30:16;;;;;;;;;;;;;;;17.11;47.40;100857.88;4999602;28;1016;-60
2023/02/27 10:32:41;;;;;;;;;;;;;;;16.46;47.89;100852.81;4999887;28;1041;-57
2023/02/27 10:35:36;;;;;;;;;;;;;;;16.81;47.89;100866.88;5017238;28;1211;-58
2023/02/27 10:38:03;;;;;;;;;;;;;;;16.87;48.13;100865.78;4994153;28;2011;-58
2023/02/27 10:40:29;;;;;;;;;;;;;;;16.47;48.08;100867.38;5014462;28;1357;-57
2023/02/27 10:42:55;;;;;;;;;;;;;;;16.32;47.50;100874.44;4998991;28;1329;-60
2023/02/27 10:45:20;;;;;;;;;;;;;;;16.67;47.47;100875.63;5014223;28;1250;-61
2023/02/27 10:47:46;;;;;;;;;;;;;;;16.90;47.73;100879.84;4999174;28;1341;-59
2023/02/27 10:50:31;;;;;;;;;;;;;;;16.43;47.82;100876.13;4998832;28;1278;-58
2023/02/27 10:52:58;;;;;;;;;;;;;;;16.24;47.44;100877.72;5022870;28;1180;-58
2023/02/27 10:55:25;;;;;;;;;;;;;;;16.17;46.62;100875.22;5005326;28;1227;-58
2023/02/27 10:57:51;;;;;;;;;;;;;;;17.03;47.33;100878.47;4999606;28;1969;-59
2023/02/27 11:00:37;;;;;;;;;;;;;;;16.40;48.05;100871.19;5014001;28;1290;-59
2023/02/27 11:03:02;;;;;;;;;;;;;;;16.19;47.46;100872.22;5005366;28;1338;-57
2023/02/27 11:05:28;;;;;;;;;;;;;;;17.19;47.13;100865.53;5021216;28;1130;-55
2023/02/27 11:07:55;;;;;;;;;;;;;;;16.49;47.75;100878.88;5014513;28;1057;-58
2023/02/27 11:10:22;;;;;;;;;;;;;;;18.11;46.30;100874.72;4998395;28;1076;-59
2023/02/27 11:13:00;;;;;;;;;;;;;;;17.36;47.83;100875.41;4999494;28;1092;-55
2023/02/27 11:15:27;;;;;;;;;;;;;;;16.82;48.28;100882.25;4998855;28;1192;-56
2023/02/27 11:17:53;;;;;;;;;;;;;;;16.65;47.52;100882.50;5000595;28;1910;-57
2023/02/27 11:20:28;;;;;;;;;;;;;;;16.51;47.12;100891.25;5006279;28;1234;-58
2023/02/27 11:23:02;;;;;;;;;;;;;;;16.39;46.53;100891.47;5003279;28;1263;-58
2023/02/27 11:25:28;;;;;;;;;;;;;;;17.12;47.22;100894.41;5001408;28;1246;-58
2023/02/27 11:27:55;;;;;;;;;;;;;;;16.66;48.13;100890.47;4998448;28;1291;-56
2023/02/27 11:30:27;;;;;;;;;;;;;;;16.49;47.69;100895.34;5013592;28;1293;-57
2023/02/27 11:32:53;;;;;;;;;;;;;;;16.31;46.94;100888.44;4998321;28;1012;-57
2023/02/27 11:35:25;;;;;;;;;;;;;;;16.13;46.62;100885.09;4999148;28;976;-59
2023/02/27 11:37:51;;;;;;;;;;;;;;;16.88;47.13;100893.00;4998912;28;1989;-61
2023/02/27 11:40:18;;;;;;;;;;;;;;;16.43;47.49;100889.84;4998813;28;1005;-60
2023/02/27 11:43:03;;;;;;;;;;;;;;;16.22;47.19;100891.69;5002558;28;1493;-57
2023/02/27 11:45:36;;;;;;;;;;;;;;;17.28;47.17;100898.81;5011808;28;1125;-56
2023/02/27 11:48:06;;;;;;;;;;;;;;;16.56;47.71;100905.00;4998803;28;1097;-56
2023/02/27 11:50:50;;;;;;;;;;;;;;;16.33;47.48;100909.03;5000729;28;1001;-56
2023/02/27 11:53:34;;;;;;;;;;;;;;;16.13;47.20;100901.56;5006846;28;1121;-56
2023/02/27 11:56:01;;;;;;;;;;;;;;;16.32;47.01;100895.59;4996927;28;962;-57
2023/02/27 11:58:27;;;;;;;;;;;;;;;16.84;47.84;100907.53;5013562;28;2060;-56
2023/02/27 12:00:57;;;;;;;;;;;;;;;16.49;47.56;100900.84;5013696;28;1136;-56
2023/02/27 12:03:39;;;;;;;;;;;;;;;16.24;47.22;100910.63;4998389;28;1057;-56
2023/02/27 12:06:08;;;;;;;;;;;;;;;16.24;47.34;100899.66;4997789;28;1229;-57
2023/02/27 12:09:05;;;;;;;;;;;;;;;16.64;47.85;100914.63;5013385;28;1093;-56
2023/02/27 12:11:41;;;;;;;;;;;;;;;16.30;47.44;100906.84;4985011;28;1363;-58
2023/02/27 12:14:06;;;;;;;;;;;;;;;16.68;47.42;100899.25;5007444;28;1227;-56
2023/02/27 12:16:37;;;;;;;;;;;;;;;16.71;47.55;100915.19;5007772;28;1234;-57
2023/02/27 12:19:08;;;;;;;;;;;;;;;16.38;47.29;100906.31;5019046;28;1913;-57
2023/02/27 12:21:35;;;;;;;;;;;;;;;16.11;47.24;100908.41;4997185;28;1001;-57
2023/02/27 12:24:04;;;;;;;;;;;;;;;17.53;46.64;100916.34;5012968;28;1120;-58
2023/02/27 12:26:36;;;;;;;;;;;;;;;16.64;48.01;100911.88;4997848;28;998;-58
2023/02/27 12:29:02;;;;;;;;;;;;;;;16.33;47.65;100906.28;4997754;28;1188;-60
2023/02/27 12:31:36;;;;;;;;;;;;;;;17.04;47.58;100902.09;4985852;28;1188;-59
2023/02/27 12:34:04;;;;;;;;;;;;;;;16.67;47.69;100908.56;4983264;28;1160;-58
2023/02/27 12:36:29;;;;;;;;;;;;;;;16.35;47.71;100908.75;5010487;28;1192;-56
2023/02/27 12:38:55;;;;;;;;;;;;;;;16.20;47.24;100915.00;4997745;28;1977;-56
2023/02/27 12:41:25;;;;;;;;;;;;;;;16.05;46.85;100916.59;4997727;28;1227;-57
2023/02/27 12:44:14;;;;;;;;;;;;;;;17.08;47.15;100916.09;4997589;28;1026;-55
2023/02/27 12:46:47;;;;;;;;;;;;;;;16.39;47.65;100927.16;5015668;28;1309;-57
2023/02/27 12:49:25;;;;;;;;;;;;;;;16.30;47.10;100934.28;5015122;28;1391;-57
2023/02/27 12:52:02;;;;;;;;;;;;;;;16.20;46.58;100936.94;4996944;28;1149;-57
2023/02/27 12:54:31;;;;;;;;;;;;;;;16.59;46.80;100940.16;5011806;28;1259;-56
2023/02/27 12:57:00;;;;;;;;;;;;;;;16.72;47.80;100930.56;4997589;28;1117;-56